Avalon, CA (90704)

2:53 AM PDT on August 26, 2016 (GMT -0700)
The Flats, Avalon | | Change Station

Elev 26 ft 33.34 °N, 118.33 °W | Updated 7 seconds ago

Overcast
Overcast
64.8 °F
Feels Like 64.8 °F
N
1.3
Wind Variable Wind from WNW
Gusts 2.5 mph

Today
High -- | Low -- °F
--% Chance of Precip.
Yesterday
High -- | Low -- °F
Precip. -- in
Pressure 29.94 in
Visibility 10.0 miles
Clouds Overcast 500 ft
Dew Point 58 °F
Humidity 80%
Rainfall 0.00 in
Snow Depth Not available.
6:23 AM 7:25 PM
Last Quarter, 36% visible
SPECI KAVX 260929Z AUTO 11005KT 10SM OVC005 15/14 A2994 RMK AO2 T01500139 TSNO $
Pressure 29.94 in
Visibility 10.0 miles
Clouds Overcast 500 ft
Dew Point 58 °F
Humidity 80%
Rainfall 0.00 in
Snow Depth Not available.
6:23 AM 7:25 PM
Last Quarter, 36% visible
SPECI KAVX 260929Z AUTO 11005KT 10SM OVC005 15/14 A2994 RMK AO2 T01500139 TSNO $

10-Day Weather Forecast

Almanac

Astronomy

Aug. 26, 2016 Rise Set
Actual Time
Civil Twilight
Nautical Twilight
Astronomical Twilight
Moon
Length of Visible Light
Length of Day
Tomorrow will be .
, % of the Moon is Illuminated

Today's Extremes

State Highs State Lows

Community

WunderPhotos

Upload Photos

1,935,069 photos uploaded!

WunderBlog® & News

Nearby

Air Quality

  Air Quality AQ Index Pollutant
Not available.

Snow Depth

Station Depth Elevation

Earthquake Activity

City Distance Mag. Time & Date
Minimum magnitude displayed is 2.5.

Coastal Water Temperatures

Place Temperature

Stations

Nearby Weather Stations

Station Location Temp. Windchill Dew Point Humidity Wind Precip. Elev Updated Type
                   

Watches & Warnings

There are currently no watches in effect.